Time;durP1;ratioP1;P1;durP2;ratioP2;P2;SDS_P1;SDS_P2;PMS_P1;PMS_P2;Temp;Humidity;BMP_temperature;BMP_pressure;BME280_temperature;BME280_humidity;BME280_pressure;Samples;Min_cycle;Max_cycle;Signal;HPM_P1;HPM_P2
2021/10/19 00:03:47;;;;;;;94.00;74.60;;;21.70;52.00;;;;;;4662099;56;21203;-23
2021/10/19 00:08:48;;;;;;;96.18;76.12;;;21.70;52.00;;;;;;4667662;56;21512;-15
2021/10/19 00:13:48;;;;;;;96.12;73.43;;;21.70;52.00;;;;;;4647638;60;21026;-20
2021/10/19 00:18:50;;;;;;;93.68;73.65;;;21.70;52.00;;;;;;4675316;56;21066;-20
2021/10/19 00:23:51;;;;;;;92.95;74.32;;;21.70;51.90;;;;;;4657934;56;21038;-23
2021/10/19 00:28:52;;;;;;;90.12;72.45;;;21.70;51.90;;;;;;4670941;56;21446;-22
2021/10/19 00:33:52;;;;;;;91.53;72.25;;;21.70;51.80;;;;;;4648299;57;21607;-24
2021/10/19 00:38:54;;;;;;;94.55;74.32;;;21.70;51.80;;;;;;4665565;56;21161;-23
2021/10/19 00:43:56;;;;;;;93.03;71.85;;;21.60;51.80;;;;;;4647760;60;21585;-22
2021/10/19 00:48:56;;;;;;;90.53;70.82;;;21.70;51.70;;;;;;4733619;56;21051;-21
2021/10/19 00:53:57;;;;;;;87.50;69.65;;;21.60;51.60;;;;;;4664044;56;21507;-23
2021/10/19 00:58:58;;;;;;;84.60;67.57;;;21.60;51.60;;;;;;4654118;56;21033;-21
2021/10/19 01:03:59;;;;;;;82.28;66.78;;;21.70;51.70;;;;;;4668166;56;21109;-24
2021/10/19 01:09:00;;;;;;;87.70;68.05;;;21.60;51.60;;;;;;4648770;60;21686;-23
2021/10/19 01:14:01;;;;;;;90.07;67.40;;;21.60;51.50;;;;;;4688344;56;21069;-21
2021/10/19 01:19:02;;;;;;;86.97;68.10;;;21.60;51.50;;;;;;4672176;56;21212;-24
2021/10/19 01:24:04;;;;;;;85.03;66.87;;;21.70;51.50;;;;;;4665843;56;21054;-24
2021/10/19 01:29:05;;;;;;;85.00;65.40;;;21.70;51.50;;;;;;4687602;56;21090;-16
2021/10/19 01:34:05;;;;;;;85.50;66.30;;;21.60;51.40;;;;;;4650279;56;21067;-24
2021/10/19 01:39:06;;;;;;;82.03;65.03;;;21.60;51.40;;;;;;4664550;56;21117;-22
2021/10/19 01:44:07;;;;;;;82.78;64.70;;;21.60;51.30;;;;;;4678185;56;21124;-19
2021/10/19 01:49:08;;;;;;;82.60;64.15;;;21.60;51.30;;;;;;4667576;56;22200;-20
2021/10/19 01:54:09;;;;;;;80.90;63.17;;;21.60;51.30;;;;;;4680660;56;21193;-17
2021/10/19 01:59:10;;;;;;;83.18;64.40;;;21.60;51.50;;;;;;4754843;56;21165;-19
2021/10/19 02:04:14;;;;;;;80.05;63.70;;;21.60;51.30;;;;;;4648297;60;21567;-22
2021/10/19 02:09:15;;;;;;;82.45;62.95;;;21.60;51.20;;;;;;4663191;56;21082;-21
2021/10/19 02:14:15;;;;;;;79.37;61.40;;;21.60;51.20;;;;;;4651765;56;21556;-22
2021/10/19 02:19:17;;;;;;;79.00;62.15;;;21.60;51.20;;;;;;4653116;56;21043;-25
2021/10/19 02:24:19;;;;;;;77.00;61.63;;;21.60;51.20;;;;;;4660026;56;21474;-18
2021/10/19 02:29:21;;;;;;;82.40;61.83;;;21.60;51.10;;;;;;4686995;56;21117;-18
2021/10/19 02:34:22;;;;;;;77.00;60.33;;;21.60;51.10;;;;;;4674419;56;21037;-20
2021/10/19 02:39:23;;;;;;;75.37;58.40;;;21.60;51.00;;;;;;4660864;56;21535;-24
2021/10/19 02:44:24;;;;;;;76.00;59.00;;;21.60;51.00;;;;;;4657454;56;21078;-19
2021/10/19 02:49:24;;;;;;;76.85;58.83;;;21.60;51.00;;;;;;4652467;56;21508;-19
2021/10/19 02:54:25;;;;;;;72.65;57.05;;;21.60;50.90;;;;;;4647961;60;21524;-23
2021/10/19 02:59:26;;;;;;;72.32;56.85;;;21.60;50.90;;;;;;4652600;56;21090;-23
2021/10/19 03:04:27;;;;;;;73.97;57.33;;;21.60;50.90;;;;;;4672670;56;21472;-24
2021/10/19 03:09:29;;;;;;;73.47;56.05;;;21.60;50.90;;;;;;4658433;56;21030;-24
2021/10/19 03:14:30;;;;;;;72.47;55.75;;;21.60;50.90;;;;;;4659274;56;21504;-24
2021/10/19 03:19:31;;;;;;;70.50;55.25;;;21.60;50.80;;;;;;4680900;56;21074;-23
2021/10/19 03:24:32;;;;;;;67.22;54.20;;;21.60;50.70;;;;;;4728559;56;21594;-25
2021/10/19 03:29:33;;;;;;;68.43;52.65;;;21.60;50.80;;;;;;4648908;60;21659;-23
2021/10/19 03:34:34;;;;;;;66.07;53.40;;;21.60;50.70;;;;;;4674021;56;21496;-21
2021/10/19 03:39:35;;;;;;;69.65;53.35;;;21.60;50.70;;;;;;4716391;56;21101;-22
2021/10/19 03:44:35;;;;;;;64.35;51.17;;;21.60;50.70;;;;;;4664878;56;21059;-22
2021/10/19 03:49:36;;;;;;;62.80;50.88;;;21.60;50.60;;;;;;4648033;60;21034;-25
2021/10/19 03:54:37;;;;;;;65.70;51.42;;;21.60;50.60;;;;;;4647923;60;21471;-22
2021/10/19 03:59:38;;;;;;;66.82;51.83;;;21.60;50.60;;;;;;4673699;56;21046;-24
2021/10/19 04:04:39;;;;;;;66.25;51.40;;;21.60;51.30;;;;;;4647707;60;21481;-19
2021/10/19 04:09:41;;;;;;;65.00;51.17;;;21.60;50.60;;;;;;4653556;56;21026;-20
2021/10/19 04:14:42;;;;;;;62.78;49.55;;;21.60;50.60;;;;;;4683026;56;21046;-21
2021/10/19 04:19:43;;;;;;;61.78;49.88;;;21.60;50.50;;;;;;4653395;56;21500;-21
2021/10/19 04:24:44;;;;;;;60.95;48.08;;;21.60;50.50;;;;;;4685046;56;21046;-23
2021/10/19 04:29:45;;;;;;;62.05;49.17;;;21.60;50.50;;;;;;4659539;56;21078;-25
2021/10/19 04:34:46;;;;;;;61.72;48.65;;;21.60;50.50;;;;;;4669767;56;21094;-21
2021/10/19 04:39:47;;;;;;;62.67;49.17;;;21.60;50.50;;;;;;4648724;56;21070;-21
2021/10/19 04:44:48;;;;;;;58.47;46.63;;;21.60;50.60;;;;;;4647745;60;21555;-24
2021/10/19 04:49:49;;;;;;;60.00;47.55;;;21.50;50.60;;;;;;4663619;56;21567;-20
2021/10/19 04:54:50;;;;;;;57.85;45.92;;;21.60;50.70;;;;;;4647583;56;21022;-22
2021/10/19 04:59:51;;;;;;;57.78;46.45;;;21.50;50.70;;;;;;4663333;56;21607;-19
2021/10/19 05:04:52;;;;;;;58.95;46.03;;;21.60;50.70;;;;;;4647922;56;21034;-22
2021/10/19 05:09:53;;;;;;;55.70;44.33;;;21.60;51.40;;;;;;4649388;56;21030;-20
2021/10/19 05:14:53;;;;;;;59.47;44.63;;;21.60;50.80;;;;;;4660824;56;21096;-25
2021/10/19 05:19:54;;;;;;;57.17;45.83;;;21.50;50.70;;;;;;4658034;56;21018;-21
2021/10/19 05:24:55;;;;;;;54.50;44.60;;;21.50;50.80;;;;;;4668331;56;21097;-23
2021/10/19 05:29:56;;;;;;;53.92;43.60;;;21.50;50.70;;;;;;4674585;56;21110;-23
2021/10/19 05:34:57;;;;;;;56.63;45.42;;;21.60;51.10;;;;;;4670386;56;21130;-21
2021/10/19 05:39:58;;;;;;;52.92;43.20;;;21.50;50.80;;;;;;4663127;56;21090;-19
2021/10/19 05:44:58;;;;;;;52.78;42.15;;;21.50;50.70;;;;;;4664666;56;21026;-21
2021/10/19 05:50:00;;;;;;;56.70;43.17;;;21.50;50.70;;;;;;4655968;56;21050;-19
2021/10/19 05:55:01;;;;;;;55.88;45.05;;;21.50;50.70;;;;;;4648025;56;21575;-23
2021/10/19 06:00:08;;;;;;;56.83;43.60;;;21.50;50.50;;;;;;4663498;56;21136;-22
2021/10/19 06:05:09;;;;;;;51.35;41.88;;;21.50;50.50;;;;;;4655008;56;21049;-26
2021/10/19 06:10:10;;;;;;;52.88;43.40;;;21.50;50.50;;;;;;4655631;56;21489;-18
2021/10/19 06:15:10;;;;;;;56.88;43.20;;;21.50;50.40;;;;;;4687117;56;21026;-18
2021/10/19 06:20:11;;;;;;;54.83;43.75;;;21.50;50.40;;;;;;4663836;56;21026;-22
2021/10/19 06:25:12;;;;;;;54.55;42.58;;;21.50;50.40;;;;;;4657074;56;21596;-21
2021/10/19 06:30:13;;;;;;;56.10;44.10;;;21.50;50.30;;;;;;4660555;56;21171;-22
2021/10/19 06:35:14;;;;;;;56.78;43.95;;;21.50;50.30;;;;;;4668476;56;21078;-19
2021/10/19 06:40:15;;;;;;;55.17;42.33;;;21.50;50.20;;;;;;4657322;56;21559;-21
2021/10/19 06:45:16;;;;;;;56.80;44.05;;;21.50;50.10;;;;;;4657833;56;21046;-22
2021/10/19 06:50:17;;;;;;;52.05;41.85;;;21.50;50.20;;;;;;4648687;60;21496;-21
2021/10/19 06:55:22;;;;;;;51.50;41.47;;;21.50;50.10;;;;;;4647428;60;21548;-24
2021/10/19 07:00:23;;;;;;;52.03;41.90;;;21.50;50.00;;;;;;4648058;60;21504;-19
2021/10/19 07:05:24;;;;;;;56.22;42.92;;;21.50;50.70;;;;;;4672560;56;21106;-19
2021/10/19 07:10:25;;;;;;;56.90;44.50;;;21.50;50.10;;;;;;4653170;56;21177;-24
2021/10/19 07:15:33;;;;;;;60.70;45.80;;;21.50;50.10;;;;;;4646750;60;21169;-25
2021/10/19 07:20:34;;;;;;;55.78;43.65;;;21.50;50.30;;;;;;4684119;56;21553;-23
2021/10/19 07:25:35;;;;;;;54.78;44.25;;;21.70;50.50;;;;;;4647452;60;21015;-22
2021/10/19 07:30:36;;;;;;;55.05;43.92;;;21.70;50.50;;;;;;4648018;60;21576;-22
2021/10/19 07:35:37;;;;;;;56.70;44.08;;;21.70;50.70;;;;;;4659336;56;21183;-22
2021/10/19 07:40:38;;;;;;;53.67;43.15;;;21.70;50.70;;;;;;4676179;56;21707;-24
2021/10/19 07:45:39;;;;;;;58.97;44.35;;;21.80;51.30;;;;;;4648134;60;21105;-22
2021/10/19 07:50:44;;;;;;;63.00;46.55;;;21.80;51.10;;;;;;4679468;56;21507;-25
2021/10/19 07:55:46;;;;;;;58.10;44.45;;;21.80;51.20;;;;;;4671237;56;21635;-25
2021/10/19 08:00:47;;;;;;;60.03;44.28;;;21.80;51.30;;;;;;4689807;56;21034;-24
2021/10/19 08:05:47;;;;;;;57.95;46.03;;;21.90;51.40;;;;;;4702385;56;21034;-24
2021/10/19 08:10:48;;;;;;;58.17;43.95;;;21.90;51.60;;;;;;4655422;56;21070;-19
2021/10/19 08:15:49;;;;;;;59.80;45.72;;;22.00;51.70;;;;;;4688678;56;21777;-21
2021/10/19 08:20:50;;;;;;;128.07;97.15;;;22.00;51.70;;;;;;4654135;56;21010;-23
2021/10/19 08:25:51;;;;;;;129.73;97.32;;;21.90;46.90;;;;;;4652188;56;21090;-24
2021/10/19 08:30:53;;;;;;;132.50;97.70;;;21.80;46.20;;;;;;4688516;56;21058;-19
2021/10/19 08:35:54;;;;;;;141.65;104.85;;;21.80;46.20;;;;;;4646608;60;21504;-26
2021/10/19 08:40:58;;;;;;;136.07;103.22;;;21.80;46.00;;;;;;4660856;56;21094;-20
2021/10/19 08:46:00;;;;;;;128.40;100.20;;;21.80;46.80;;;;;;4661828;56;21108;-22
2021/10/19 08:51:01;;;;;;;129.45;98.43;;;21.90;47.10;;;;;;4665991;56;21082;-22
2021/10/19 08:56:03;;;;;;;129.50;98.65;;;22.00;47.40;;;;;;4661949;56;21050;-23
2021/10/19 09:01:13;;;;;;;119.90;92.53;;;22.10;47.80;;;;;;4677543;56;21504;-21
2021/10/19 09:06:14;;;;;;;120.25;92.55;;;22.10;48.00;;;;;;4647389;60;21568;-22
2021/10/19 09:11:16;;;;;;;126.10;92.25;;;22.20;48.40;;;;;;4712108;56;21036;-20
2021/10/19 09:16:17;;;;;;;114.97;86.87;;;22.20;48.80;;;;;;4652806;56;21066;-24
2021/10/19 09:21:30;;;;;;;115.18;87.55;;;22.20;49.10;;;;;;4650036;56;21937;-25
2021/10/19 09:26:31;;;;;;;111.90;84.35;;;22.20;49.40;;;;;;4649359;56;21054;-31
2021/10/19 09:31:37;;;;;;;113.50;86.05;;;22.30;49.80;;;;;;4670027;56;21524;-24
2021/10/19 09:36:38;;;;;;;114.40;86.60;;;22.30;50.00;;;;;;4689380;56;21639;-24
2021/10/19 09:41:46;;;;;;;108.10;82.85;;;22.30;50.30;;;;;;4663815;56;21086;-25
2021/10/19 09:46:47;;;;;;;111.68;85.20;;;22.40;50.60;;;;;;4648955;56;21496;-22
2021/10/19 09:51:49;;;;;;;106.70;80.03;;;22.40;50.80;;;;;;4645015;57;21131;-23
2021/10/19 09:56:50;;;;;;;110.30;82.12;;;22.30;50.90;;;;;;4656298;56;21050;-18
2021/10/19 10:01:51;;;;;;;110.25;81.55;;;22.30;51.10;;;;;;4649668;56;21634;-20
2021/10/19 10:06:53;;;;;;;105.60;80.45;;;22.40;51.30;;;;;;4651567;56;21105;-21
2021/10/19 10:11:53;;;;;;;110.05;76.60;;;22.40;51.50;;;;;;4661982;56;21492;-23
2021/10/19 10:16:55;;;;;;;102.65;78.70;;;22.40;51.40;;;;;;4654507;56;21131;-19
2021/10/19 10:21:56;;;;;;;105.15;77.00;;;22.40;51.60;;;;;;4665659;56;21449;-24
2021/10/19 10:27:09;;;;;;;103.32;79.25;;;22.40;51.70;;;;;;4652705;56;21587;-26
2021/10/19 10:33:04;;;;;;;102.78;76.82;;;22.40;51.90;;;;;;4646177;60;21042;-22
2021/10/19 10:38:06;;;;;;;101.53;78.37;;;22.40;52.00;;;;;;4646656;60;21022;-22
2021/10/19 10:43:20;;;;;;;102.15;75.55;;;22.40;52.10;;;;;;4651762;56;21026;-21
2021/10/19 10:48:21;;;;;;;97.45;75.45;;;22.40;52.20;;;;;;4669493;56;21114;-22
2021/10/19 10:53:30;;;;;;;99.13;76.10;;;22.40;52.30;;;;;;4657509;56;21082;-21
2021/10/19 10:58:34;;;;;;;98.22;76.15;;;22.50;52.50;;;;;;4673761;56;21153;-24
2021/10/19 11:03:35;;;;;;;104.18;77.93;;;22.50;52.60;;;;;;4657859;56;21611;-19
2021/10/19 11:08:36;;;;;;;92.40;75.70;;;22.40;52.60;;;;;;4699669;56;21022;-23
2021/10/19 11:13:58;;;;;;;102.95;80.38;;;22.50;52.80;;;;;;4658259;56;21091;-21
2021/10/19 11:19:01;;;;;;;105.28;80.50;;;22.50;52.80;;;;;;4656867;56;21516;-21
2021/10/19 11:24:01;;;;;;;101.15;79.25;;;22.50;53.60;;;;;;4647172;56;21017;-20
2021/10/19 11:29:04;;;;;;;101.75;79.53;;;22.50;53.10;;;;;;4676265;56;21103;-22
2021/10/19 11:34:06;;;;;;;102.75;80.43;;;22.50;53.20;;;;;;4662251;56;21073;-24
2021/10/19 11:39:14;;;;;;;103.43;80.45;;;22.50;53.20;;;;;;4647598;60;21050;-20
2021/10/19 11:44:15;;;;;;;100.45;78.75;;;22.50;53.30;;;;;;4650189;56;21105;-19
2021/10/19 11:49:18;;;;;;;102.85;81.37;;;22.60;53.40;;;;;;4666988;56;21070;-23
2021/10/19 11:54:20;;;;;;;100.53;81.20;;;22.50;53.50;;;;;;4656360;56;21082;-25
2021/10/19 11:59:21;;;;;;;103.18;83.57;;;22.50;53.60;;;;;;4705410;56;21010;-22
2021/10/19 12:04:26;;;;;;;107.93;82.72;;;22.50;53.80;;;;;;4671882;56;21086;-16
2021/10/19 12:09:28;;;;;;;105.82;81.97;;;22.50;53.80;;;;;;4705063;56;21464;-24
2021/10/19 12:14:39;;;;;;;110.05;85.03;;;22.60;54.00;;;;;;4655840;56;21078;-21
2021/10/19 12:19:40;;;;;;;106.50;85.22;;;22.60;53.90;;;;;;4697087;56;21070;-21
2021/10/19 12:24:44;;;;;;;107.40;85.82;;;22.50;53.70;;;;;;4669241;56;21525;-22
2021/10/19 12:29:46;;;;;;;110.30;86.85;;;22.50;53.60;;;;;;4665638;56;21519;-25
2021/10/19 12:34:49;;;;;;;110.30;86.20;;;22.50;53.50;;;;;;4656409;56;21086;-24
2021/10/19 12:39:50;;;;;;;113.68;88.28;;;22.50;53.60;;;;;;4656235;56;21595;-19
2021/10/19 12:44:51;;;;;;;106.15;86.80;;;22.50;53.40;;;;;;4655688;56;21058;-19
2021/10/19 12:49:55;;;;;;;110.93;85.87;;;22.50;53.30;;;;;;4679458;56;21074;-23
2021/10/19 12:54:56;;;;;;;113.47;87.03;;;22.50;53.30;;;;;;4694586;56;21089;-23
2021/10/19 12:59:57;;;;;;;111.37;87.85;;;22.50;53.30;;;;;;4667245;56;21074;-23
2021/10/19 13:04:58;;;;;;;109.63;88.65;;;22.50;53.40;;;;;;4656797;56;21082;-21
2021/10/19 13:09:59;;;;;;;108.60;87.45;;;22.50;53.40;;;;;;4652291;56;21533;-23
2021/10/19 13:15:03;;;;;;;116.60;89.82;;;22.50;53.50;;;;;;4658080;56;21660;-25
2021/10/19 13:20:05;;;;;;;107.60;85.60;;;22.50;53.60;;;;;;4656674;56;21027;-19
2021/10/19 13:25:07;;;;;;;112.53;90.07;;;22.50;53.70;;;;;;4699226;56;21074;-19
2021/10/19 13:30:09;;;;;;;105.85;88.70;;;22.60;53.70;;;;;;4682095;56;21133;-20
2021/10/19 13:35:10;;;;;;;110.45;87.70;;;22.60;53.70;;;;;;4662168;56;21539;-25
2021/10/19 13:40:13;;;;;;;106.32;85.87;;;22.60;53.90;;;;;;4686382;56;21054;-24
2021/10/19 13:45:14;;;;;;;111.88;86.78;;;22.60;54.00;;;;;;4690603;56;21492;-24
2021/10/19 13:50:15;;;;;;;108.25;86.60;;;22.60;54.10;;;;;;4648206;57;21074;-24
2021/10/19 13:55:17;;;;;;;108.78;85.68;;;22.60;54.20;;;;;;4660475;56;21591;-25
2021/10/19 14:00:18;;;;;;;105.53;84.62;;;22.60;54.30;;;;;;4659582;56;21022;-25
2021/10/19 14:05:19;;;;;;;103.80;85.07;;;22.60;54.50;;;;;;4656979;56;21228;-20
2021/10/19 14:10:20;;;;;;;109.65;85.57;;;22.60;54.30;;;;;;4648810;56;21062;-24
2021/10/19 14:15:21;;;;;;;101.15;84.05;;;22.60;54.40;;;;;;4658225;56;21022;-23
2021/10/19 14:20:22;;;;;;;104.03;82.85;;;22.70;54.50;;;;;;4647714;60;21548;-24
2021/10/19 14:25:23;;;;;;;106.22;84.68;;;22.60;54.50;;;;;;4734366;56;21034;-24
2021/10/19 14:30:24;;;;;;;102.97;83.43;;;22.70;54.50;;;;;;4648228;60;21023;-25
2021/10/19 14:35:26;;;;;;;105.70;85.57;;;22.70;54.50;;;;;;4659428;56;21070;-25
2021/10/19 14:40:28;;;;;;;98.57;80.53;;;22.70;54.60;;;;;;4677032;56;21059;-16
2021/10/19 14:45:28;;;;;;;102.20;84.03;;;22.70;54.60;;;;;;4676675;56;21488;-24
2021/10/19 14:50:29;;;;;;;102.15;83.40;;;22.70;54.60;;;;;;4666463;56;21106;-22
2021/10/19 14:55:30;;;;;;;105.07;82.28;;;22.70;54.60;;;;;;4658656;56;21042;-17
2021/10/19 15:00:32;;;;;;;102.15;83.32;;;22.70;54.60;;;;;;4659715;56;21019;-20
2021/10/19 15:05:33;;;;;;;100.03;81.65;;;22.60;54.70;;;;;;4651344;56;22060;-19
2021/10/19 15:10:34;;;;;;;100.40;81.43;;;22.50;54.70;;;;;;4652973;56;21002;-24
2021/10/19 15:15:35;;;;;;;100.65;81.10;;;22.50;54.70;;;;;;4692134;56;21520;-22
2021/10/19 15:20:36;;;;;;;100.15;80.95;;;22.50;54.60;;;;;;4676569;56;21002;-22
2021/10/19 15:25:36;;;;;;;103.22;81.35;;;22.50;54.60;;;;;;4679762;56;21579;-23
2021/10/19 15:30:37;;;;;;;96.57;77.90;;;22.40;54.60;;;;;;4655597;56;21058;-24
2021/10/19 15:35:38;;;;;;;96.37;80.78;;;22.40;54.60;;;;;;4658716;56;21107;-20
2021/10/19 15:40:39;;;;;;;97.65;79.93;;;22.40;54.50;;;;;;4647116;60;21205;-21
2021/10/19 15:45:41;;;;;;;94.35;76.72;;;22.40;54.50;;;;;;4657311;56;21027;-19
2021/10/19 15:50:42;;;;;;;94.43;76.97;;;22.30;54.50;;;;;;4648091;56;21110;-21
2021/10/19 15:55:44;;;;;;;95.80;76.47;;;22.30;54.50;;;;;;4654195;56;21473;-20
2021/10/19 16:00:45;;;;;;;95.57;78.62;;;22.30;54.50;;;;;;4661440;56;22287;-20
2021/10/19 16:05:46;;;;;;;98.37;78.68;;;22.30;54.50;;;;;;4650342;56;21022;-25
2021/10/19 16:10:48;;;;;;;92.95;76.37;;;22.30;54.50;;;;;;4652987;56;21070;-20
2021/10/19 16:15:51;;;;;;;94.43;76.62;;;22.20;54.40;;;;;;4656983;56;21589;-20
2021/10/19 16:20:56;;;;;;;93.53;76.50;;;22.20;54.30;;;;;;4691269;56;21528;-21
2021/10/19 16:25:57;;;;;;;95.70;76.47;;;22.20;54.30;;;;;;4656284;56;21556;-22
2021/10/19 16:30:58;;;;;;;91.90;76.68;;;22.20;54.20;;;;;;4692203;56;21042;-23
2021/10/19 16:35:58;;;;;;;93.30;76.43;;;22.20;54.30;;;;;;4647020;60;21046;-18
2021/10/19 16:40:59;;;;;;;92.95;77.10;;;22.10;54.20;;;;;;4655549;56;21564;-24
2021/10/19 16:46:00;;;;;;;93.70;74.15;;;22.20;54.20;;;;;;4670277;56;21030;-25
2021/10/19 16:51:01;;;;;;;91.47;73.85;;;22.20;54.20;;;;;;4669927;56;21010;-21
2021/10/19 16:56:02;;;;;;;92.30;75.85;;;22.10;54.10;;;;;;4667956;56;21612;-22
2021/10/19 17:01:03;;;;;;;89.15;75.12;;;22.10;54.10;;;;;;4671180;56;21074;-21
2021/10/19 17:06:04;;;;;;;93.10;75.32;;;22.10;54.10;;;;;;4648118;60;21047;-19
2021/10/19 17:11:09;;;;;;;86.53;73.65;;;22.10;54.00;;;;;;4659088;56;21066;-23
2021/10/19 17:16:10;;;;;;;88.68;72.57;;;22.10;54.10;;;;;;4665505;56;22078;-24
2021/10/19 17:21:12;;;;;;;87.53;72.90;;;22.10;54.00;;;;;;4663544;56;21177;-23
2021/10/19 17:26:13;;;;;;;90.05;73.18;;;22.10;54.00;;;;;;4650512;56;21094;-23
2021/10/19 17:31:15;;;;;;;91.63;74.70;;;22.10;54.00;;;;;;4667631;56;21038;-22
2021/10/19 17:36:16;;;;;;;88.35;72.85;;;22.10;54.00;;;;;;4649592;56;21098;-26
2021/10/19 17:41:18;;;;;;;88.85;72.37;;;22.10;54.00;;;;;;4663769;56;21034;-19
2021/10/19 17:46:18;;;;;;;89.37;72.87;;;22.10;54.00;;;;;;4648911;56;21097;-19
2021/10/19 17:51:23;;;;;;;88.45;73.15;;;22.10;53.90;;;;;;4658782;56;21089;-20
2021/10/19 17:56:24;;;;;;;91.37;73.28;;;22.10;53.90;;;;;;4668458;56;21765;-23
2021/10/19 18:01:25;;;;;;;89.70;72.82;;;22.10;53.90;;;;;;4659143;56;21019;-21
2021/10/19 18:06:26;;;;;;;88.62;71.85;;;22.10;53.90;;;;;;4680307;56;21520;-19
2021/10/19 18:11:29;;;;;;;90.43;74.53;;;22.10;53.90;;;;;;4648026;60;21086;-20
2021/10/19 18:16:34;;;;;;;88.30;71.28;;;22.00;53.80;;;;;;4647743;56;21173;-16
2021/10/19 18:21:35;;;;;;;88.32;74.30;;;22.00;53.80;;;;;;4668266;56;21516;-19
2021/10/19 18:26:36;;;;;;;85.72;71.72;;;22.00;53.80;;;;;;4647523;60;21038;-18
2021/10/19 18:31:37;;;;;;;88.43;72.50;;;22.10;53.90;;;;;;4647953;60;21011;-20
2021/10/19 18:36:38;;;;;;;90.25;73.35;;;22.00;53.80;;;;;;4667695;56;21042;-22
2021/10/19 18:41:39;;;;;;;88.95;74.62;;;22.00;53.70;;;;;;4699632;56;21529;-23
2021/10/19 18:46:40;;;;;;;88.12;71.87;;;22.00;53.80;;;;;;4652546;56;21126;-23
2021/10/19 18:51:41;;;;;;;89.00;73.00;;;22.00;53.80;;;;;;4647882;60;21022;-22
2021/10/19 18:56:42;;;;;;;84.05;69.95;;;22.00;53.70;;;;;;4647029;60;21050;-18
2021/10/19 19:01:44;;;;;;;87.72;69.87;;;22.00;53.70;;;;;;4686623;56;21481;-20
2021/10/19 19:06:46;;;;;;;88.72;73.82;;;22.00;53.70;;;;;;4648815;56;21086;-22
2021/10/19 19:11:51;;;;;;;90.75;72.50;;;22.00;53.70;;;;;;4662785;56;21014;-23
2021/10/19 19:16:52;;;;;;;95.20;74.97;;;22.00;53.70;;;;;;4665564;56;21042;-24
2021/10/19 19:21:53;;;;;;;87.35;72.35;;;22.00;53.60;;;;;;4661700;56;21034;-19
2021/10/19 19:26:54;;;;;;;85.75;69.85;;;22.00;53.70;;;;;;4656912;56;21050;-23
2021/10/19 19:31:55;;;;;;;89.87;72.35;;;22.00;53.70;;;;;;4685681;56;21486;-20
2021/10/19 19:36:56;;;;;;;88.60;71.62;;;22.00;53.60;;;;;;4667983;56;21114;-20
2021/10/19 19:41:57;;;;;;;83.97;67.87;;;22.00;53.60;;;;;;4665469;56;21496;-22
2021/10/19 19:46:58;;;;;;;83.95;70.93;;;22.00;53.60;;;;;;4655934;56;21043;-24
2021/10/19 19:51:59;;;;;;;90.62;73.60;;;22.00;53.60;;;;;;4648476;60;21496;-20
2021/10/19 19:57:00;;;;;;;87.20;72.68;;;22.00;53.60;;;;;;4646933;60;21042;-22
2021/10/19 20:02:02;;;;;;;88.28;73.32;;;22.00;53.50;;;;;;4690504;56;21102;-21
2021/10/19 20:07:03;;;;;;;89.20;73.30;;;22.00;53.50;;;;;;4649689;56;21604;-22
2021/10/19 20:12:05;;;;;;;88.65;73.05;;;22.00;53.50;;;;;;4648126;60;21546;-20
2021/10/19 20:17:06;;;;;;;89.82;72.53;;;22.00;53.50;;;;;;4684187;56;22200;-17
2021/10/19 20:22:07;;;;;;;87.07;69.90;;;22.00;53.50;;;;;;4666208;56;21118;-20
2021/10/19 20:27:08;;;;;;;84.30;69.53;;;22.00;53.50;;;;;;4665976;56;21019;-24
2021/10/19 20:32:13;;;;;;;87.57;70.10;;;22.00;53.40;;;;;;4708447;56;21476;-20
2021/10/19 20:37:14;;;;;;;87.57;71.37;;;22.00;53.40;;;;;;4651267;56;21098;-22
2021/10/19 20:42:15;;;;;;;85.57;69.65;;;22.00;53.40;;;;;;4670245;56;21544;-23
2021/10/19 20:47:21;;;;;;;87.45;70.15;;;22.00;53.40;;;;;;4676522;56;21051;-23
2021/10/19 20:52:22;;;;;;;86.50;70.80;;;22.00;53.40;;;;;;4653349;56;21580;-24
2021/10/19 20:57:23;;;;;;;86.78;70.87;;;22.00;53.40;;;;;;4653555;56;21138;-26
2021/10/19 21:02:24;;;;;;;87.15;70.65;;;21.90;53.30;;;;;;4652635;56;21006;-26
2021/10/19 21:07:24;;;;;;;89.05;72.65;;;21.90;53.20;;;;;;4654643;56;21022;-23
2021/10/19 21:12:25;;;;;;;90.15;72.82;;;21.90;53.20;;;;;;4654205;56;21030;-23
2021/10/19 21:17:26;;;;;;;90.32;72.57;;;21.90;53.20;;;;;;4655599;56;21106;-23
2021/10/19 21:22:27;;;;;;;89.95;73.97;;;21.90;53.20;;;;;;4664040;56;21041;-16
2021/10/19 21:27:28;;;;;;;83.25;68.45;;;21.90;53.10;;;;;;4648742;60;21058;-22
2021/10/19 21:32:29;;;;;;;88.93;71.70;;;21.90;53.10;;;;;;4680914;56;21146;-24
2021/10/19 21:37:30;;;;;;;92.88;73.97;;;21.90;53.10;;;;;;4648609;60;21166;-24
2021/10/19 21:42:31;;;;;;;88.90;71.20;;;21.90;53.10;;;;;;4656616;56;21010;-20
2021/10/19 21:47:33;;;;;;;91.87;70.87;;;21.90;53.00;;;;;;4648480;60;21125;-22
2021/10/19 21:52:34;;;;;;;89.93;71.60;;;21.90;53.00;;;;;;4659870;56;21488;-24
2021/10/19 21:57:35;;;;;;;91.78;72.65;;;21.90;53.00;;;;;;4673926;56;21587;-23
2021/10/19 22:02:37;;;;;;;85.57;68.93;;;21.90;52.90;;;;;;4663658;56;21504;-20
2021/10/19 22:07:38;;;;;;;90.35;71.28;;;21.90;52.90;;;;;;4668875;56;21153;-23
2021/10/19 22:12:39;;;;;;;89.03;71.15;;;21.90;52.90;;;;;;4648809;60;21027;-22
2021/10/19 22:17:40;;;;;;;89.78;70.70;;;21.90;52.90;;;;;;4680163;56;21026;-22
2021/10/19 22:22:41;;;;;;;90.72;71.28;;;21.90;52.80;;;;;;4650645;56;21522;-22
2021/10/19 22:27:42;;;;;;;88.78;70.68;;;21.90;52.80;;;;;;4647888;60;21030;-20
2021/10/19 22:32:43;;;;;;;85.10;69.32;;;21.90;52.90;;;;;;4676392;56;21037;-24
2021/10/19 22:37:43;;;;;;;85.22;69.22;;;21.90;52.80;;;;;;4657351;56;21521;-24
2021/10/19 22:42:44;;;;;;;90.68;70.43;;;21.80;52.70;;;;;;4663389;56;21094;-21
2021/10/19 22:47:46;;;;;;;87.43;69.22;;;21.80;52.60;;;;;;4678936;56;21528;-20
2021/10/19 22:52:46;;;;;;;88.90;70.22;;;21.80;52.70;;;;;;4670655;56;21556;-16
2021/10/19 22:57:47;;;;;;;83.55;69.37;;;21.80;52.70;;;;;;4657582;56;21030;-18
2021/10/19 23:02:48;;;;;;;84.03;67.30;;;21.80;52.50;;;;;;4654778;56;21643;-19
2021/10/19 23:07:49;;;;;;;87.62;68.22;;;21.80;52.50;;;;;;4663838;56;21070;-20
2021/10/19 23:12:50;;;;;;;87.28;69.80;;;21.80;52.40;;;;;;4681102;56;21098;-19
2021/10/19 23:17:52;;;;;;;83.82;66.12;;;21.80;52.50;;;;;;4651397;56;21026;-20
2021/10/19 23:22:53;;;;;;;84.22;66.97;;;21.80;52.40;;;;;;4681688;56;21027;-25
2021/10/19 23:27:54;;;;;;;84.05;68.07;;;21.80;52.40;;;;;;4648089;56;21532;-22
2021/10/19 23:32:55;;;;;;;86.15;66.87;;;21.80;52.40;;;;;;4653506;56;21484;-20
2021/10/19 23:37:56;;;;;;;83.15;63.60;;;21.80;52.30;;;;;;4669453;56;21122;-18
2021/10/19 23:42:57;;;;;;;85.60;67.70;;;21.80;52.20;;;;;;4658484;56;21082;-22
2021/10/19 23:47:58;;;;;;;77.82;63.92;;;21.80;52.20;;;;;;4657466;56;21516;-23
2021/10/19 23:52:58;;;;;;;84.47;68.53;;;21.80;52.20;;;;;;4676976;56;21061;-24
2021/10/19 23:57:59;;;;;;;87.22;65.75;;;21.80;52.20;;;;;;4663228;56;21086;-21
